Time;durP1;ratioP1;P1;durP2;ratioP2;P2;SDS_P1;SDS_P2;PMS_P1;PMS_P2;Temp;Humidity;BMP_temperature;BMP_pressure;BME280_temperature;BME280_humidity;BME280_pressure;Samples;Min_cycle;Max_cycle;Signal;HPM_P1;HPM_P2
2022/11/20 00:00:55;;;;;;;9.27;5.53;;;0.70;99.90;;;;;;4799194;29;20051;-87
2022/11/20 00:03:21;;;;;;;9.13;6.07;;;-0.40;99.90;;;;;;4791702;29;20058;-87
2022/11/20 00:05:50;;;;;;;7.55;5.15;;;;;;;;;;4794360;29;20049;-88
2022/11/20 00:08:16;;;;;;;8.30;5.13;;;-0.30;99.90;;;;;;4810090;29;20057;-87
2022/11/20 00:10:42;;;;;;;9.30;5.25;;;-0.50;99.90;;;;;;4791814;29;20062;-88
2022/11/20 00:13:10;;;;;;;9.30;5.40;;;-1.10;99.90;;;;;;4772739;29;20050;-88
2022/11/20 00:15:36;;;;;;;8.02;4.88;;;;;;;;;;4785215;29;20052;-88
2022/11/20 00:18:02;;;;;;;8.23;5.28;;;-0.30;99.90;;;;;;4783542;29;20054;-88
2022/11/20 00:20:40;;;;;;;9.73;5.15;;;0.20;99.90;;;;;;4780540;29;20050;-88
2022/11/20 00:23:08;;;;;;;11.40;5.40;;;-2.00;99.90;;;;;;4798617;29;20062;-87
2022/11/20 00:25:35;;;;;;;9.15;4.97;;;0.00;99.90;;;;;;4796550;29;20062;-88
2022/11/20 00:28:01;;;;;;;7.95;4.80;;;-0.10;99.90;;;;;;4798579;29;20062;-88
2022/11/20 00:30:31;;;;;;;8.93;5.50;;;-0.40;99.90;;;;;;4785190;29;20054;-87
2022/11/20 00:32:57;;;;;;;9.93;5.95;;;0.40;99.90;;;;;;4804922;29;20054;-88
2022/11/20 00:35:23;;;;;;;8.40;5.20;;;0.10;99.90;;;;;;4803126;29;20050;-87
2022/11/20 00:37:50;;;;;;;10.23;5.03;;;;;;;;;;4799112;29;20068;-87
2022/11/20 00:40:18;;;;;;;8.25;5.57;;;-0.20;99.90;;;;;;4794973;29;20560;-87
2022/11/20 00:42:44;;;;;;;8.27;4.75;;;-0.30;99.90;;;;;;4784334;29;20054;-87
2022/11/20 00:45:10;;;;;;;8.82;5.30;;;2.40;99.90;;;;;;4786699;29;20061;-88
2022/11/20 00:47:36;;;;;;;7.90;4.88;;;1.10;99.90;;;;;;4802110;29;20057;-88
2022/11/20 00:50:02;;;;;;;9.25;5.20;;;2.10;99.90;;;;;;4785709;29;20058;-88
2022/11/20 00:52:28;;;;;;;8.52;5.50;;;0.00;99.90;;;;;;4786398;29;20057;-86
2022/11/20 00:54:54;;;;;;;7.15;5.15;;;;;;;;;;4786527;29;20054;-88
2022/11/20 00:57:20;;;;;;;8.13;5.10;;;-0.20;99.90;;;;;;4771027;29;20058;-87
2022/11/20 00:59:46;;;;;;;8.73;5.65;;;0.80;99.90;;;;;;4799349;29;20082;-87
2022/11/20 01:02:19;;;;;;;8.10;4.97;;;-0.10;99.90;;;;;;4800622;29;20058;-87
2022/11/20 01:04:45;;;;;;;9.15;5.70;;;1.60;99.90;;;;;;4782442;29;20057;-88
2022/11/20 01:07:11;;;;;;;9.18;6.00;;;0.30;99.90;;;;;;4784955;29;20114;-88
2022/11/20 01:09:36;;;;;;;10.00;6.05;;;2.00;99.90;;;;;;4797897;29;20086;-87
2022/11/20 01:12:03;;;;;;;8.43;4.85;;;-0.10;99.90;;;;;;4781033;29;20611;-88
2022/11/20 01:14:28;;;;;;;9.80;5.55;;;0.40;99.90;;;;;;4779781;29;20106;-88
2022/11/20 01:16:55;;;;;;;9.27;5.45;;;;;;;;;;4782201;29;20054;-88
2022/11/20 01:19:22;;;;;;;10.05;5.93;;;-0.10;99.90;;;;;;4795559;29;20093;-88
2022/11/20 01:21:51;;;;;;;10.27;5.35;;;1.80;99.90;;;;;;4799948;29;20091;-87
2022/11/20 01:24:20;;;;;;;9.93;6.18;;;-0.10;99.90;;;;;;4783409;29;20050;-87
2022/11/20 01:26:50;;;;;;;9.55;5.25;;;2.20;99.90;;;;;;4784201;29;20095;-89
2022/11/20 01:29:20;;;;;;;9.95;5.82;;;0.00;99.90;;;;;;4799252;29;20054;-88
2022/11/20 01:31:47;;;;;;;10.75;6.32;;;0.30;99.90;;;;;;4799063;29;21307;-88
2022/11/20 01:34:16;;;;;;;8.98;5.63;;;1.60;99.90;;;;;;4800665;29;20574;-88
2022/11/20 01:36:42;;;;;;;9.85;5.88;;;0.40;99.90;;;;;;4784180;29;20057;-88
2022/11/20 01:39:17;;;;;;;9.57;6.18;;;-0.10;99.90;;;;;;4781629;29;20058;-88
2022/11/20 01:44:50;;;;;;;9.77;5.60;;;1.60;99.90;;;;;;4800042;29;20062;-86
2022/11/20 01:47:21;;;;;;;7.50;5.20;;;-0.20;99.90;;;;;;4781379;29;20580;-88
2022/11/20 01:49:59;;;;;;;8.95;5.63;;;-0.50;99.90;;;;;;4786927;29;20050;-87
2022/11/20 01:52:36;;;;;;;8.95;6.05;;;-0.10;99.90;;;;;;4800580;29;20110;-88
2022/11/20 01:55:33;;;;;;;15.38;8.82;;;-0.10;99.90;;;;;;4785504;29;20149;-87
2022/11/20 01:58:00;;;;;;;17.23;10.85;;;1.60;99.90;;;;;;4786743;29;20074;-88
2022/11/20 02:00:29;;;;;;;16.42;9.20;;;-0.30;99.90;;;;;;4788939;29;20050;-87
2022/11/20 02:03:18;;;;;;;15.93;9.68;;;-0.70;99.90;;;;;;4784232;29;20094;-87
2022/11/20 02:05:50;;;;;;;14.60;9.43;;;-0.50;99.90;;;;;;4813538;29;20050;-87
2022/11/20 02:08:19;;;;;;;14.55;8.57;;;1.60;99.90;;;;;;4803164;29;20058;-86
2022/11/20 02:10:44;;;;;;;13.40;7.80;;;-0.50;99.90;;;;;;4783781;29;20170;-88
2022/11/20 02:15:55;;;;;;;10.73;6.55;;;0.80;99.90;;;;;;4806104;29;20051;-88
2022/11/20 02:18:21;;;;;;;10.63;6.20;;;0.10;99.90;;;;;;4789331;29;20057;-88
2022/11/20 02:20:53;;;;;;;9.68;5.65;;;1.60;99.90;;;;;;4791685;29;20050;-86
2022/11/20 02:23:38;;;;;;;9.18;5.93;;;1.80;99.90;;;;;;4789834;29;20090;-88
2022/11/20 02:26:08;;;;;;;8.57;5.45;;;-0.40;99.90;;;;;;4801428;29;20061;-86
2022/11/20 02:28:34;;;;;;;10.57;5.65;;;-1.10;99.90;;;;;;4801045;29;20054;-87
2022/11/20 02:31:04;;;;;;;10.07;5.80;;;-0.30;99.90;;;;;;4787765;29;20392;-87
2022/11/20 02:33:29;;;;;;;9.63;5.10;;;1.30;99.90;;;;;;4789871;29;20100;-88
2022/11/20 02:35:55;;;;;;;9.35;4.63;;;1.10;99.90;;;;;;4784100;29;20147;-87
2022/11/20 02:38:21;;;;;;;9.02;5.18;;;;;;;;;;4787153;29;20054;-86
2022/11/20 02:40:49;;;;;;;7.65;4.75;;;-0.70;99.90;;;;;;4799729;29;21004;-87
2022/11/20 02:43:16;;;;;;;8.27;5.80;;;-0.80;99.90;;;;;;4787210;29;20058;-87
2022/11/20 02:45:44;;;;;;;7.38;5.20;;;-0.80;99.90;;;;;;4784666;29;20118;-87
2022/11/20 02:48:10;;;;;;;7.82;4.97;;;0.10;99.90;;;;;;4771208;29;20058;-87
2022/11/20 02:50:38;;;;;;;6.88;4.55;;;-0.70;99.90;;;;;;4789290;29;20246;-87
2022/11/20 02:53:04;;;;;;;7.65;4.65;;;;;;;;;;4787198;29;20420;-87
2022/11/20 02:55:30;;;;;;;7.25;4.55;;;-0.80;99.90;;;;;;4783340;29;20568;-88
2022/11/20 02:57:56;;;;;;;8.80;5.13;;;0.40;99.90;;;;;;4785428;29;20042;-88
2022/11/20 03:00:22;;;;;;;8.23;4.78;;;-0.10;99.90;;;;;;4770950;29;20161;-87
2022/11/20 03:02:48;;;;;;;8.10;4.88;;;-0.30;99.90;;;;;;4789663;29;20137;-87
2022/11/20 03:05:14;;;;;;;8.90;5.10;;;-0.70;99.90;;;;;;4786994;29;20058;-87
2022/11/20 03:07:40;;;;;;;8.05;5.13;;;-0.90;99.90;;;;;;4785736;29;20505;-88
2022/11/20 03:10:08;;;;;;;10.85;5.88;;;-0.60;99.90;;;;;;4792433;29;20540;-87
2022/11/20 03:12:34;;;;;;;8.55;5.35;;;-0.90;99.90;;;;;;4787528;29;20058;-86
2022/11/20 03:15:00;;;;;;;9.20;5.10;;;-0.90;99.90;;;;;;4757265;29;20081;-88
2022/11/20 03:17:26;;;;;;;8.15;5.20;;;0.40;99.90;;;;;;4787354;29;20087;-87
2022/11/20 03:19:52;;;;;;;8.82;5.13;;;-0.70;99.90;;;;;;4791611;29;20068;-87
2022/11/20 03:22:20;;;;;;;8.23;5.18;;;-0.60;99.90;;;;;;4782298;29;20058;-88
2022/11/20 03:24:47;;;;;;;8.45;5.03;;;-0.90;99.90;;;;;;4800313;29;20065;-86
2022/11/20 03:27:13;;;;;;;8.82;5.20;;;-2.30;99.90;;;;;;4787802;29;20059;-87
2022/11/20 03:29:39;;;;;;;8.40;5.03;;;0.10;99.90;;;;;;4788575;29;20050;-87
2022/11/20 03:32:05;;;;;;;8.68;5.30;;;-1.00;99.90;;;;;;4800085;29;20098;-87
2022/11/20 03:34:30;;;;;;;7.93;5.22;;;-1.10;99.90;;;;;;4796242;29;20065;-87
2022/11/20 03:36:59;;;;;;;7.57;4.82;;;-0.80;99.90;;;;;;4791562;29;20047;-87
2022/11/20 03:39:26;;;;;;;8.93;4.93;;;1.20;99.90;;;;;;4783135;29;20051;-86
2022/11/20 03:41:55;;;;;;;8.00;4.82;;;-1.00;99.90;;;;;;4784998;29;20062;-88
2022/11/20 03:44:21;;;;;;;6.88;4.30;;;-0.80;99.90;;;;;;4802489;29;20058;-87
2022/11/20 03:46:50;;;;;;;7.43;4.32;;;-2.30;99.90;;;;;;4784995;29;20109;-87
2022/11/20 03:49:19;;;;;;;7.55;5.30;;;-1.00;99.90;;;;;;4784669;29;20050;-86
2022/11/20 03:51:48;;;;;;;9.02;5.60;;;-0.70;99.90;;;;;;4802250;29;20054;-88
2022/11/20 03:54:14;;;;;;;10.38;5.82;;;-0.90;99.90;;;;;;4816392;29;20080;-87
2022/11/20 03:56:39;;;;;;;9.07;5.15;;;1.20;99.90;;;;;;4799016;29;20557;-87
2022/11/20 03:59:06;;;;;;;11.43;5.82;;;-0.80;99.90;;;;;;4785662;29;20065;-89
2022/11/20 04:01:35;;;;;;;9.40;5.75;;;-0.20;99.90;;;;;;4786090;29;20122;-88
2022/11/20 04:04:01;;;;;;;8.98;6.00;;;-0.70;99.90;;;;;;4802424;29;20065;-88
2022/11/20 04:06:30;;;;;;;8.98;5.93;;;-0.70;99.90;;;;;;4770709;29;20066;-86
2022/11/20 04:08:59;;;;;;;9.25;5.85;;;0.40;99.90;;;;;;4783295;29;20066;-87
2022/11/20 04:11:27;;;;;;;9.57;5.28;;;1.10;99.90;;;;;;4799983;29;20080;-85
2022/11/20 04:14:08;;;;;;;8.73;4.82;;;1.10;99.90;;;;;;4801245;29;20091;-87
2022/11/20 04:16:35;;;;;;;9.32;5.35;;;1.30;99.90;;;;;;4782823;29;21095;-86
2022/11/20 04:19:04;;;;;;;8.68;5.13;;;-0.80;99.90;;;;;;4791629;29;20091;-88
2022/11/20 04:21:30;;;;;;;8.23;4.82;;;-0.70;99.90;;;;;;4782191;29;20836;-89
2022/11/20 04:23:59;;;;;;;11.15;5.70;;;-1.70;99.90;;;;;;4771560;29;20058;-86
2022/11/20 04:26:26;;;;;;;9.05;5.50;;;-1.00;99.90;;;;;;4772480;29;20097;-88
2022/11/20 04:28:53;;;;;;;9.88;5.80;;;0.20;99.90;;;;;;4801064;29;20054;-86
2022/11/20 04:31:21;;;;;;;8.35;4.95;;;1.70;99.90;;;;;;4791474;29;20054;-87
2022/11/20 04:33:48;;;;;;;9.23;5.38;;;-1.10;99.90;;;;;;4800506;29;20062;-87
2022/11/20 04:36:22;;;;;;;7.50;5.13;;;0.90;99.90;;;;;;4800703;29;20050;-86
2022/11/20 04:38:55;;;;;;;8.98;5.55;;;0.90;99.90;;;;;;4784019;29;20169;-88
2022/11/20 04:41:23;;;;;;;7.88;5.07;;;0.00;99.90;;;;;;4792110;29;20073;-87
2022/11/20 04:43:51;;;;;;;7.47;5.05;;;-1.20;99.90;;;;;;4782054;29;20057;-87
2022/11/20 04:46:19;;;;;;;9.43;5.90;;;-0.80;99.90;;;;;;4799962;29;20050;-85
2022/11/20 04:48:45;;;;;;;9.25;5.10;;;-2.60;99.90;;;;;;4782378;29;20061;-86
2022/11/20 04:51:11;;;;;;;7.35;4.85;;;;;;;;;;4791217;29;20065;-86
2022/11/20 04:53:36;;;;;;;8.75;5.25;;;-1.30;99.90;;;;;;4797585;29;20042;-87
2022/11/20 04:56:06;;;;;;;11.55;5.82;;;0.80;99.90;;;;;;4768344;29;20111;-87
2022/11/20 04:58:32;;;;;;;8.48;4.85;;;-1.10;99.90;;;;;;4796984;29;20058;-87
2022/11/20 05:01:08;;;;;;;9.57;5.30;;;0.20;99.90;;;;;;4786376;29;20086;-87
2022/11/20 05:03:35;;;;;;;;;;;0.50;99.90;;;;;;4794238;29;20536;-87
2022/11/20 05:06:03;;;;;;;10.90;5.80;;;-1.50;99.90;;;;;;4784130;29;20476;-86
2022/11/20 05:08:30;;;;;;;9.50;5.05;;;-1.50;99.90;;;;;;4800408;29;20065;-87
2022/11/20 05:11:08;;;;;;;6.93;4.80;;;-3.00;99.90;;;;;;4785380;29;20647;-87
2022/11/20 05:13:34;;;;;;;9.48;5.18;;;-0.70;99.90;;;;;;4798272;29;20058;-86
2022/11/20 05:16:15;;;;;;;7.82;5.03;;;-2.00;99.90;;;;;;4782508;29;20053;-88
2022/11/20 05:18:41;;;;;;;9.05;5.32;;;-1.60;99.90;;;;;;4794111;29;20054;-87
2022/11/20 05:21:10;;;;;;;7.82;4.93;;;-1.60;99.90;;;;;;4783022;29;20508;-88
2022/11/20 05:23:37;;;;;;;8.85;5.55;;;-1.70;99.90;;;;;;4782408;29;20815;-87
2022/11/20 05:26:03;;;;;;;10.55;5.93;;;-1.30;99.90;;;;;;4788963;29;20058;-87
2022/11/20 05:28:33;;;;;;;8.50;5.18;;;-1.30;99.90;;;;;;4800355;29;20508;-87
2022/11/20 05:31:13;;;;;;;9.10;5.53;;;-0.80;99.90;;;;;;4798238;29;20118;-87
2022/11/20 05:33:44;;;;;;;10.75;6.45;;;-1.50;99.90;;;;;;4781664;29;20099;-87
2022/11/20 05:36:11;;;;;;;8.65;5.88;;;-1.50;99.90;;;;;;4782521;29;20448;-87
2022/11/20 05:38:37;;;;;;;10.25;5.65;;;-3.30;99.90;;;;;;4767817;29;20042;-88
2022/11/20 05:41:14;;;;;;;9.98;6.00;;;-1.20;99.90;;;;;;4778610;29;20615;-86
2022/11/20 05:43:42;;;;;;;10.73;6.28;;;0.90;99.90;;;;;;4797412;29;20054;-86
2022/11/20 05:46:10;;;;;;;10.18;5.47;;;-1.60;99.90;;;;;;4786080;29;20058;-87
2022/11/20 05:48:37;;;;;;;9.63;5.40;;;-2.30;99.90;;;;;;4815598;29;20054;-88
2022/11/20 05:51:04;;;;;;;9.63;5.97;;;-1.60;99.90;;;;;;4805967;29;20837;-87
2022/11/20 05:53:33;;;;;;;9.30;5.93;;;-1.20;99.90;;;;;;4789050;29;20055;-87
2022/11/20 05:56:05;;;;;;;9.07;5.65;;;-1.30;99.90;;;;;;4790710;29;20042;-86
2022/11/20 05:58:31;;;;;;;11.55;6.43;;;-1.70;99.90;;;;;;4790250;29;20050;-87
2022/11/20 06:01:11;;;;;;;10.20;5.70;;;0.20;99.90;;;;;;4786186;29;20058;-87
2022/11/20 06:03:37;;;;;;;8.30;5.70;;;-1.50;99.90;;;;;;4806283;29;20057;-87
2022/11/20 06:06:05;;;;;;;8.77;5.68;;;-0.90;99.90;;;;;;4802068;29;20050;-86
2022/11/20 06:08:34;;;;;;;9.38;5.63;;;-1.30;99.90;;;;;;4804879;29;20050;-86
2022/11/20 06:11:07;;;;;;;10.48;6.15;;;-1.20;99.90;;;;;;4802228;29;20081;-87
2022/11/20 06:13:34;;;;;;;10.23;6.00;;;-0.80;99.90;;;;;;4789553;29;20850;-87
2022/11/20 06:16:02;;;;;;;9.32;5.93;;;-1.10;99.90;;;;;;4788578;29;20106;-87
2022/11/20 06:18:29;;;;;;;8.90;5.20;;;-0.10;99.90;;;;;;4787338;29;20046;-86
2022/11/20 06:21:08;;;;;;;9.43;5.72;;;0.50;99.90;;;;;;4789811;29;20058;-86
2022/11/20 06:23:35;;;;;;;10.30;5.90;;;0.60;99.90;;;;;;4802081;29;20046;-88
2022/11/20 06:26:09;;;;;;;8.35;5.65;;;1.00;99.90;;;;;;4800572;29;20095;-86
2022/11/20 06:28:38;;;;;;;9.35;5.50;;;-1.30;99.90;;;;;;4788239;29;20619;-86
2022/11/20 06:31:06;;;;;;;10.23;6.32;;;0.80;99.90;;;;;;4788957;29;20073;-86
2022/11/20 06:33:32;;;;;;;9.90;5.90;;;;;;;;;;4787818;29;20050;-86
2022/11/20 06:35:59;;;;;;;9.25;6.00;;;-1.40;99.90;;;;;;4800233;29;20473;-87
2022/11/20 06:38:26;;;;;;;8.82;5.50;;;0.20;99.90;;;;;;4786020;29;21274;-86
2022/11/20 06:40:52;;;;;;;10.05;6.18;;;-2.20;99.90;;;;;;4787741;29;20050;-86
2022/11/20 06:43:18;;;;;;;11.70;6.55;;;-1.80;99.90;;;;;;4786239;29;20070;-86
2022/11/20 06:45:46;;;;;;;10.27;5.60;;;-1.20;99.90;;;;;;4817933;29;20046;-87
2022/11/20 06:48:12;;;;;;;10.85;6.68;;;-0.10;99.90;;;;;;4802392;29;20086;-86
2022/11/20 06:50:38;;;;;;;9.05;5.05;;;0.80;99.90;;;;;;4777700;29;20486;-86
2022/11/20 06:53:05;;;;;;;9.48;6.38;;;-0.90;99.90;;;;;;4803355;29;20050;-87
2022/11/20 06:55:31;;;;;;;8.82;5.72;;;0.40;99.90;;;;;;4773927;29;20050;-87
2022/11/20 06:57:58;;;;;;;9.95;6.10;;;-0.80;99.90;;;;;;4815217;29;20058;-85
2022/11/20 07:00:24;;;;;;;9.98;5.95;;;0.80;99.90;;;;;;4805214;29;20050;-86
2022/11/20 07:02:49;;;;;;;9.70;5.65;;;-1.60;99.90;;;;;;4802144;29;20051;-86
2022/11/20 07:05:16;;;;;;;10.30;5.80;;;0.80;99.90;;;;;;4764589;29;20065;-86
2022/11/20 07:07:44;;;;;;;11.27;6.53;;;-1.40;99.90;;;;;;4787238;29;20133;-88
2022/11/20 07:10:10;;;;;;;8.57;5.43;;;-1.40;99.90;;;;;;4802430;29;20157;-86
2022/11/20 07:12:36;;;;;;;11.05;5.80;;;-1.20;99.90;;;;;;4772540;29;20141;-87
2022/11/20 07:15:02;;;;;;;9.88;5.82;;;-1.00;99.90;;;;;;4783902;29;20062;-87
2022/11/20 07:17:28;;;;;;;10.57;6.28;;;-1.20;99.90;;;;;;4770761;29;20054;-87
2022/11/20 07:19:53;;;;;;;11.05;6.47;;;-1.40;99.90;;;;;;4779791;29;20244;-86
2022/11/20 07:22:21;;;;;;;10.60;6.10;;;2.00;99.90;;;;;;4800712;29;20062;-88
2022/11/20 07:24:48;;;;;;;12.23;7.20;;;-2.50;99.90;;;;;;4793799;29;20061;-87
2022/11/20 07:27:14;;;;;;;10.40;6.15;;;;;;;;;;4797164;29;20055;-86
2022/11/20 07:29:40;;;;;;;10.60;6.25;;;-1.40;99.90;;;;;;4789794;29;20054;-86
2022/11/20 07:32:06;;;;;;;11.55;6.53;;;-1.50;99.90;;;;;;4784891;29;20059;-87
2022/11/20 07:34:31;;;;;;;11.55;6.55;;;0.20;99.90;;;;;;4799037;29;20626;-87
2022/11/20 07:36:57;;;;;;;11.73;6.93;;;-0.80;99.90;;;;;;4781843;29;20241;-87
2022/11/20 07:39:23;;;;;;;10.55;6.28;;;;;;;;;;4783113;29;20673;-85
2022/11/20 07:41:49;;;;;;;10.25;6.35;;;-1.40;99.90;;;;;;4776957;29;20067;-87
2022/11/20 07:44:17;;;;;;;10.30;6.28;;;-0.30;99.90;;;;;;4782520;29;20074;-87
2022/11/20 07:46:43;;;;;;;13.77;7.28;;;0.70;99.90;;;;;;4781772;29;20405;-85
2022/11/20 07:49:09;;;;;;;12.20;7.00;;;1.20;99.90;;;;;;4783313;29;20051;-87
2022/11/20 07:51:35;;;;;;;10.35;6.18;;;-2.90;99.90;;;;;;4766237;29;20378;-87
2022/11/20 07:54:00;;;;;;;11.02;6.80;;;-0.80;99.90;;;;;;4811708;29;20067;-87
2022/11/20 07:56:29;;;;;;;10.63;6.97;;;-1.30;99.90;;;;;;4773162;29;20519;-88
2022/11/20 07:58:55;;;;;;;10.25;6.75;;;;;;;;;;4770513;29;20054;-87
2022/11/20 08:01:21;;;;;;;9.57;6.07;;;-1.10;99.90;;;;;;4780795;29;20100;-87
2022/11/20 08:03:47;;;;;;;10.35;5.97;;;;;;;;;;4792277;29;20054;-86
2022/11/20 08:06:18;;;;;;;13.20;6.55;;;-1.10;99.90;;;;;;4776623;29;20050;-86
2022/11/20 08:08:44;;;;;;;9.30;6.20;;;0.40;99.90;;;;;;4796920;29;20046;-86
2022/11/20 08:14:12;;;;;;;11.60;5.97;;;0.70;99.90;;;;;;4793862;29;20058;-87
2022/11/20 08:16:42;;;;;;;11.45;6.53;;;-0.80;99.90;;;;;;4795528;29;20059;-87
2022/11/20 08:19:11;;;;;;;11.35;6.70;;;-0.90;99.90;;;;;;4796864;29;20051;-87
2022/11/20 08:21:37;;;;;;;10.65;5.85;;;;;;;;;;4795921;29;20520;-87
2022/11/20 08:24:08;;;;;;;10.07;6.15;;;-0.70;99.90;;;;;;4779805;29;20055;-87
2022/11/20 08:26:35;;;;;;;11.68;6.60;;;;;;;;;;4763832;29;20078;-86
2022/11/20 08:29:01;;;;;;;10.85;6.20;;;-0.50;99.90;;;;;;4779807;29;20233;-87
2022/11/20 08:31:29;;;;;;;11.13;6.72;;;-0.50;99.90;;;;;;4764706;29;20501;-88
2022/11/20 08:33:56;;;;;;;12.13;7.50;;;;;;;;;;4795744;29;20066;-88
2022/11/20 08:36:25;;;;;;;17.48;8.77;;;1.80;99.90;;;;;;4777325;29;20051;-87
2022/11/20 08:38:56;;;;;;;11.90;7.90;;;3.10;99.90;;;;;;4798805;29;20051;-87
2022/11/20 08:41:25;;;;;;;11.05;6.55;;;3.20;99.90;;;;;;4778742;29;20059;-86
2022/11/20 08:43:58;;;;;;;11.02;6.85;;;3.80;99.90;;;;;;4782719;29;20062;-87
2022/11/20 08:46:39;;;;;;;10.32;6.22;;;3.40;99.90;;;;;;4806762;29;20063;-86
2022/11/20 08:49:08;;;;;;;10.57;6.15;;;3.20;99.90;;;;;;4782015;29;20409;-87
2022/11/20 08:51:34;;;;;;;10.05;6.50;;;2.60;99.90;;;;;;4797364;29;20112;-88
2022/11/20 08:54:00;;;;;;;10.13;5.72;;;2.90;99.90;;;;;;4771484;29;20078;-88
2022/11/20 08:56:27;;;;;;;10.35;6.13;;;2.50;99.90;;;;;;4777236;29;20092;-88
2022/11/20 08:58:53;;;;;;;11.25;7.30;;;2.10;99.90;;;;;;4778002;29;20135;-89
2022/11/20 09:01:22;;;;;;;11.18;7.00;;;2.00;99.90;;;;;;4796780;29;20200;-88
2022/11/20 09:03:49;;;;;;;9.95;6.35;;;1.80;99.90;;;;;;4792388;29;20513;-88
2022/11/20 09:06:15;;;;;;;12.13;6.20;;;3.70;99.90;;;;;;4796917;29;20050;-87
2022/11/20 09:08:41;;;;;;;10.65;6.82;;;;;;;;;;4777541;29;20112;-88
2022/11/20 09:11:07;;;;;;;9.57;6.05;;;1.80;99.90;;;;;;4795706;29;20138;-88
2022/11/20 09:13:34;;;;;;;10.75;6.55;;;2.90;99.90;;;;;;4792645;29;20104;-88
2022/11/20 09:16:04;;;;;;;11.77;7.43;;;3.70;99.90;;;;;;4783653;29;20478;-89
2022/11/20 09:18:33;;;;;;;9.43;5.95;;;3.90;99.90;;;;;;4794581;29;20474;-88
2022/11/20 09:21:01;;;;;;;9.75;5.88;;;1.40;99.90;;;;;;4784752;29;20054;-88
2022/11/20 09:23:30;;;;;;;11.00;7.05;;;1.60;99.90;;;;;;4794574;29;20054;-88
2022/11/20 09:25:59;;;;;;;9.00;5.78;;;3.10;99.90;;;;;;4782904;29;20051;-88
2022/11/20 09:28:26;;;;;;;10.30;6.18;;;1.50;99.90;;;;;;4790943;29;20051;-87
2022/11/20 09:30:52;;;;;;;10.45;6.47;;;;;;;;;;4782305;29;20050;-87
2022/11/20 09:33:18;;;;;;;9.73;6.03;;;1.80;99.90;;;;;;4778087;29;20665;-88
2022/11/20 09:35:44;;;;;;;9.13;6.13;;;3.90;99.90;;;;;;4783612;29;20126;-88
2022/11/20 09:38:14;;;;;;;8.93;5.85;;;0.90;99.90;;;;;;4776603;29;20111;-89
2022/11/20 09:41:17;;;;;;;9.45;6.22;;;2.60;99.90;;;;;;4784818;29;20163;-89
2022/11/20 09:44:31;;;;;;;11.10;6.50;;;4.30;99.90;;;;;;4798293;29;20358;-89
2022/11/20 09:47:07;;;;;;;9.50;5.80;;;2.40;99.90;;;;;;4773087;29;20135;-89
2022/11/20 09:49:42;;;;;;;;;;;2.50;99.90;;;;;;4797587;29;20133;-89
2022/11/20 09:52:26;;;;;;;9.55;5.40;;;2.50;99.90;;;;;;4780825;29;19936;-88
2022/11/20 09:54:53;;;;;;;10.38;6.20;;;0.80;99.90;;;;;;4813507;29;20089;-88
2022/11/20 09:57:22;;;;;;;9.70;6.50;;;4.80;99.90;;;;;;4785464;29;20046;-89
2022/11/20 09:59:57;;;;;;;9.07;6.03;;;4.00;99.90;;;;;;4795379;29;20543;-89
2022/11/20 10:02:40;;;;;;;8.38;6.20;;;4.30;99.90;;;;;;4787228;29;20553;-89
2022/11/20 10:05:25;;;;;;;10.82;6.18;;;4.40;99.90;;;;;;4796935;29;20111;-88
2022/11/20 10:08:09;;;;;;;9.15;5.97;;;2.70;99.90;;;;;;4800370;29;20054;-88
2022/11/20 10:10:38;;;;;;;9.40;6.10;;;;;;;;;;4803664;29;20129;-88
2022/11/20 10:13:37;;;;;;;11.25;6.93;;;2.60;99.90;;;;;;4801432;29;20046;-88
2022/11/20 10:16:15;;;;;;;9.75;6.60;;;2.50;99.90;;;;;;4801115;29;20061;-87
2022/11/20 10:19:23;;;;;;;9.23;6.13;;;4.40;99.90;;;;;;4783869;29;20062;-86
2022/11/20 10:22:28;;;;;;;9.85;5.68;;;2.60;99.90;;;;;;4801884;29;20050;-89
2022/11/20 10:25:17;;;;;;;8.60;5.97;;;2.60;99.90;;;;;;4783967;29;20082;-88
2022/11/20 10:28:06;;;;;;;8.60;5.45;;;2.80;99.90;;;;;;4780484;29;20086;-89
2022/11/20 10:30:38;;;;;;;9.88;6.30;;;3.10;99.90;;;;;;4797069;29;20090;-88
2022/11/20 10:33:19;;;;;;;7.57;5.22;;;4.30;99.90;;;;;;4795915;29;20085;-89
2022/11/20 10:35:51;;;;;;;9.07;5.55;;;3.10;99.90;;;;;;4793948;29;20497;-89
2022/11/20 10:38:29;;;;;;;8.77;5.78;;;2.40;99.90;;;;;;4783504;29;20054;-87
2022/11/20 10:41:24;;;;;;;8.07;5.45;;;3.40;99.90;;;;;;4781852;29;20073;-88
2022/11/20 10:43:46;;;;;;;8.75;5.70;;;3.30;99.90;;;;;;4793358;29;20051;-88
2022/11/20 10:46:21;;;;;;;8.82;6.20;;;3.10;99.90;;;;;;4797104;29;20138;-88
2022/11/20 10:48:49;;;;;;;10.13;5.90;;;3.00;99.90;;;;;;4781003;29;20039;-87
2022/11/20 10:51:36;;;;;;;9.98;6.88;;;5.40;99.90;;;;;;4815308;29;20129;-88
2022/11/20 10:57:48;;;;;;;10.23;6.53;;;3.50;99.90;;;;;;4788689;29;20142;-88
2022/11/20 11:00:18;;;;;;;10.70;6.40;;;2.20;99.90;;;;;;4791479;29;20133;-89
2022/11/20 11:02:56;;;;;;;9.77;6.82;;;3.50;99.90;;;;;;4799185;29;20058;-87
2022/11/20 11:05:57;;;;;;;10.70;7.10;;;4.80;99.90;;;;;;4798371;29;20070;-87
2022/11/20 11:08:37;;;;;;;10.05;6.38;;;2.40;99.90;;;;;;4783270;29;20057;-88
2022/11/20 11:11:29;;;;;;;10.77;6.93;;;3.70;99.90;;;;;;4784787;29;20058;-89
2022/11/20 11:14:10;;;;;;;10.55;6.95;;;2.20;99.90;;;;;;4784084;29;20051;-88
2022/11/20 11:17:13;;;;;;;10.90;7.07;;;2.00;99.90;;;;;;4798179;29;20050;-88
2022/11/20 11:20:26;;;;;;;10.02;6.93;;;3.00;99.90;;;;;;4765346;29;20158;-88
2022/11/20 11:23:02;;;;;;;8.93;6.35;;;3.20;99.90;;;;;;4775066;29;20149;-87
2022/11/20 11:25:38;;;;;;;10.98;7.00;;;3.70;99.90;;;;;;4800390;29;20046;-87
2022/11/20 11:28:05;;;;;;;;;;;3.60;99.90;;;;;;4786086;29;20046;-89
2022/11/20 11:30:49;;;;;;;9.48;7.18;;;3.60;99.90;;;;;;4782241;29;20031;-88
2022/11/20 11:33:29;;;;;;;9.80;6.50;;;3.50;99.90;;;;;;4785430;29;20111;-87
2022/11/20 11:36:24;;;;;;;9.13;6.47;;;3.50;99.90;;;;;;4798836;29;20173;-88
2022/11/20 11:38:57;;;;;;;11.40;7.22;;;3.60;99.90;;;;;;4770652;29;20137;-87
2022/11/20 11:41:35;;;;;;;9.88;6.53;;;3.60;99.90;;;;;;4809014;29;20062;-88
2022/11/20 11:47:29;;;;;;;11.50;6.82;;;3.50;99.90;;;;;;4787045;29;20078;-87
2022/11/20 11:50:32;;;;;;;10.60;6.68;;;3.50;99.90;;;;;;4812377;29;20055;-89
2022/11/20 11:53:43;;;;;;;9.93;6.38;;;3.70;99.90;;;;;;4796360;29;20047;-88
2022/11/20 11:56:20;;;;;;;9.55;6.43;;;2.30;99.90;;;;;;4785871;29;20054;-88
2022/11/20 11:58:49;;;;;;;10.13;7.38;;;3.60;99.90;;;;;;4781462;29;20090;-87
2022/11/20 12:02:00;;;;;;;9.80;7.00;;;3.50;99.90;;;;;;4811799;29;20050;-86
2022/11/20 12:05:21;;;;;;;10.35;7.07;;;3.10;99.90;;;;;;4724451;30;20064;-87
2022/11/20 12:08:18;;;;;;;11.70;7.13;;;3.40;99.90;;;;;;4798145;29;20110;-87
2022/11/20 12:11:18;;;;;;;10.52;6.22;;;2.80;99.90;;;;;;4779078;29;20046;-88
2022/11/20 12:14:23;;;;;;;9.32;6.15;;;3.60;99.90;;;;;;4788385;29;20147;-87
2022/11/20 12:16:52;;;;;;;9.60;6.53;;;3.80;99.90;;;;;;4782230;29;20126;-88
2022/11/20 12:19:28;;;;;;;9.82;6.22;;;3.60;99.90;;;;;;4799329;29;20055;-87
2022/11/20 12:22:19;;;;;;;8.63;6.43;;;3.70;99.90;;;;;;4782801;29;20047;-87
2022/11/20 12:25:11;;;;;;;9.90;6.00;;;3.70;99.90;;;;;;4795215;29;20142;-87
2022/11/20 12:27:49;;;;;;;9.93;6.53;;;4.70;99.90;;;;;;4777204;29;20458;-89
2022/11/20 12:30:19;;;;;;;9.68;6.90;;;3.80;99.90;;;;;;4777720;29;20067;-88
2022/11/20 12:33:15;;;;;;;10.82;7.50;;;3.70;99.90;;;;;;4779311;29;20054;-86
2022/11/20 12:36:07;;;;;;;9.90;7.05;;;3.60;99.90;;;;;;4794473;29;20055;-87
2022/11/20 12:39:08;;;;;;;9.38;6.70;;;3.60;99.90;;;;;;4795022;29;20067;-88
2022/11/20 12:45:12;;;;;;;8.48;6.13;;;4.00;99.90;;;;;;4794445;29;20074;-88
2022/11/20 12:48:02;;;;;;;9.93;6.80;;;2.80;99.90;;;;;;4793943;29;20058;-87
2022/11/20 12:50:39;;;;;;;8.85;6.43;;;3.50;99.90;;;;;;4796232;29;20055;-88
2022/11/20 12:53:26;;;;;;;10.07;6.18;;;3.70;99.90;;;;;;4797341;29;20566;-86
2022/11/20 12:56:22;;;;;;;8.82;6.65;;;5.50;99.90;;;;;;4796564;29;20055;-88
2022/11/20 12:59:15;;;;;;;9.55;6.40;;;3.40;99.90;;;;;;4798577;29;20062;-88
2022/11/20 13:02:01;;;;;;;8.32;5.70;;;3.30;99.90;;;;;;4803026;29;20448;-88
2022/11/20 13:04:45;;;;;;;8.25;5.80;;;3.50;99.90;;;;;;4783500;29;20042;-87
2022/11/20 13:07:14;;;;;;;8.60;5.47;;;5.10;99.90;;;;;;4788169;29;20061;-87
2022/11/20 13:09:46;;;;;;;7.78;5.90;;;3.00;99.90;;;;;;4778209;29;20101;-87
2022/11/20 13:12:32;;;;;;;9.85;6.47;;;3.20;99.90;;;;;;4784127;29;20054;-87
2022/11/20 13:15:08;;;;;;;9.15;6.40;;;2.90;99.90;;;;;;4781719;29;20061;-86
2022/11/20 13:17:47;;;;;;;9.65;6.78;;;3.90;99.90;;;;;;4779866;29;20055;-87
2022/11/20 13:20:17;;;;;;;10.85;6.22;;;2.90;99.90;;;;;;4784152;29;20058;-85
2022/11/20 13:22:45;;;;;;;8.90;6.28;;;3.10;99.90;;;;;;4779251;29;20059;-88
2022/11/20 13:25:32;;;;;;;8.70;6.13;;;4.50;99.90;;;;;;4795957;29;20057;-87
2022/11/20 13:28:21;;;;;;;10.57;7.13;;;2.90;99.90;;;;;;4779368;29;20059;-85
2022/11/20 13:30:55;;;;;;;10.48;6.32;;;3.20;99.90;;;;;;4787137;29;20096;-86
2022/11/20 13:33:44;;;;;;;7.90;5.93;;;4.20;99.90;;;;;;4797166;29;20094;-88
2022/11/20 13:36:26;;;;;;;8.00;6.03;;;2.90;99.90;;;;;;4797666;29;20050;-87
2022/11/20 13:38:54;;;;;;;7.75;5.40;;;4.40;99.90;;;;;;4763762;29;20096;-88
2022/11/20 13:41:35;;;;;;;9.63;5.60;;;2.60;99.90;;;;;;4796831;29;20771;-87